createdAt,value
2024-02-03T00:44:02.772Z,15.20
2024-02-03T00:50:19.721Z,12.80
2024-02-03T01:40:28.255Z,13.30
2024-02-03T01:46:36.922Z,11.60
2024-02-03T01:52:52.401Z,12.40
2024-02-03T01:59:18.284Z,12.00
2024-02-03T02:25:04.646Z,9.80
2024-02-03T02:31:30.536Z,8.90
2024-02-03T02:37:56.154Z,9.90
2024-02-03T02:44:02.807Z,7.60
2024-02-03T02:50:52.306Z,12.50
2024-02-03T02:57:22.329Z,8.70
2024-02-03T03:03:28.039Z,9.30
2024-02-03T03:41:20.011Z,9.10
2024-02-03T03:47:06.239Z,7.30
2024-02-03T03:59:52.510Z,7.80
2024-02-03T04:06:09.482Z,8.30
2024-02-03T04:12:26.898Z,12.30
2024-02-03T04:18:33.861Z,8.50
2024-02-03T04:24:58.400Z,9.00
2024-02-03T04:56:35.530Z,9.80
2024-02-03T05:03:03.555Z,10.00
2024-02-03T05:34:21.038Z,8.20
2024-02-03T05:40:06.752Z,9.00
2024-02-03T05:46:13.070Z,9.50
2024-02-03T05:52:30.987Z,10.40
2024-02-03T05:59:13.106Z,9.10
2024-02-03T06:04:59.683Z,10.40
2024-02-03T06:11:17.316Z,10.30
2024-02-03T06:17:09.891Z,8.50
2024-02-03T06:23:15.472Z,9.50
2024-02-03T06:28:59.772Z,11.50
2024-02-03T06:41:11.377Z,11.20
2024-02-03T06:47:05.891Z,11.20
2024-02-03T06:53:14.146Z,9.50
2024-02-03T06:59:40.101Z,11.40
2024-02-03T07:05:47.530Z,10.40
2024-02-03T07:12:14.029Z,12.30
2024-02-03T07:24:31.704Z,11.10
2024-02-03T07:42:19.970Z,10.60
2024-02-03T08:16:51.961Z,7.10
2024-02-03T08:22:22.423Z,9.60
2024-02-03T08:27:40.450Z,7.80
2024-02-03T08:33:13.688Z,5.80
2024-02-03T08:38:35.202Z,7.40
2024-02-03T08:44:55.010Z,6.40
2024-02-03T08:50:25.894Z,6.60
2024-02-03T08:55:37.146Z,6.90
2024-02-03T09:00:51.410Z,8.20
2024-02-03T09:07:07.682Z,7.20
2024-02-03T09:12:16.114Z,6.20
2024-02-03T09:17:39.187Z,6.90
2024-02-03T09:23:09.615Z,7.30
2024-02-03T09:28:18.449Z,5.70
2024-02-03T09:33:28.750Z,7.90
2024-02-03T09:39:23.658Z,6.50
2024-02-03T09:44:39.744Z,7.30
2024-02-03T09:49:57.174Z,8.40
2024-02-03T09:55:48.168Z,7.50
2024-02-03T10:01:47.641Z,8.60
2024-02-03T10:07:18.460Z,7.20
2024-02-03T10:12:56.757Z,8.90
2024-02-03T10:18:21.468Z,9.00
2024-02-03T10:24:23.915Z,7.20
2024-02-03T10:29:56.192Z,7.80
2024-02-03T10:35:08.442Z,7.40
2024-02-03T10:40:32.863Z,7.00
2024-02-03T10:45:44.952Z,6.90
2024-02-03T10:50:56.972Z,6.70
2024-02-03T10:56:32.025Z,6.90
2024-02-03T11:01:54.696Z,7.10
2024-02-03T11:07:09.550Z,8.00
2024-02-03T11:12:37.024Z,6.20
2024-02-03T11:17:48.336Z,7.20
2024-02-03T11:23:17.456Z,7.40
2024-02-03T11:28:25.121Z,6.40
2024-02-03T11:33:59.722Z,6.00
2024-02-03T11:40:28.566Z,4.70
2024-02-03T11:46:16.219Z,5.60
2024-02-03T11:52:27.172Z,5.90
2024-02-03T12:04:35.335Z,4.70
2024-02-03T12:10:05.038Z,4.60
2024-02-03T12:16:19.708Z,4.80
2024-02-03T12:22:37.366Z,4.20
2024-02-03T12:28:57.108Z,4.40
2024-02-03T12:34:53.967Z,5.40
2024-02-03T12:40:40.798Z,4.10
2024-02-03T12:46:26.905Z,3.30
2024-02-03T12:51:57.572Z,3.50
2024-02-03T12:58:10.197Z,3.10
2024-02-03T13:03:34.812Z,5.60
2024-02-03T13:09:20.961Z,3.20
2024-02-03T13:15:16.764Z,3.30
2024-02-03T13:21:35.391Z,3.90
2024-02-03T13:27:36.031Z,3.40
2024-02-03T13:33:58.175Z,3.00
2024-02-03T13:40:37.252Z,4.30
2024-02-03T13:46:46.029Z,3.70
2024-02-03T13:53:17.270Z,4.40
2024-02-03T13:59:37.152Z,3.70
2024-02-03T14:13:21.589Z,3.80
2024-02-03T14:19:49.380Z,3.10
2024-02-03T14:25:59.856Z,3.80
2024-02-03T14:32:13.311Z,2.80
2024-02-03T14:38:32.964Z,2.50
2024-02-03T14:44:07.897Z,3.40
2024-02-03T14:50:14.789Z,3.30
2024-02-03T15:01:40.475Z,3.10
2024-02-03T15:07:09.421Z,3.70
2024-02-03T15:13:06.753Z,4.00
2024-02-03T15:18:55.326Z,3.00
2024-02-03T15:24:03.136Z,3.70
2024-02-03T15:29:09.137Z,3.70
2024-02-03T15:35:16.293Z,2.50
2024-02-03T15:41:26.705Z,3.00
2024-02-03T15:47:46.033Z,2.40
2024-02-03T15:53:34.732Z,4.30
2024-02-03T16:04:56.217Z,3.20
2024-02-03T16:10:16.691Z,3.90
2024-02-03T16:16:06.402Z,3.60
2024-02-03T16:21:53.077Z,3.20
2024-02-03T16:27:01.666Z,3.50
2024-02-03T16:32:13.034Z,4.30
2024-02-03T16:37:49.246Z,4.20
2024-02-03T16:43:38.367Z,4.70
2024-02-03T16:55:02.377Z,4.00
2024-02-03T17:01:12.154Z,4.40
2024-02-03T17:13:01.348Z,4.00
2024-02-03T17:19:12.756Z,5.40
2024-02-03T17:25:42.724Z,7.10
2024-02-03T17:31:25.455Z,4.30
2024-02-03T17:37:22.975Z,4.80
2024-02-03T17:43:48.554Z,6.40
2024-02-03T17:49:17.339Z,3.70
2024-02-03T17:54:28.368Z,3.60
2024-02-03T17:59:47.693Z,3.70
2024-02-03T18:05:08.492Z,4.50
2024-02-03T18:10:59.603Z,3.90
2024-02-03T18:16:47.206Z,6.60
2024-02-03T18:22:52.977Z,3.50
2024-02-03T18:29:10.260Z,3.70
2024-02-03T18:35:39.493Z,4.90
2024-02-03T19:04:57.183Z,4.40
2024-02-03T19:16:17.213Z,3.70
2024-02-03T19:21:46.146Z,4.40
2024-02-03T19:27:03.158Z,5.70
2024-02-03T19:37:49.091Z,5.90
2024-02-03T19:43:08.922Z,5.70
2024-02-03T19:49:15.690Z,4.90
2024-02-03T19:55:07.148Z,6.00
2024-02-03T20:00:38.173Z,8.20
2024-02-03T20:05:58.188Z,5.00
2024-02-03T20:11:52.389Z,6.20
2024-02-03T20:18:03.091Z,5.80
2024-02-03T20:23:39.885Z,8.40
2024-02-03T20:41:24.451Z,7.40
2024-02-03T20:46:34.044Z,9.50
2024-02-03T20:52:29.442Z,7.00
2024-02-03T20:58:28.639Z,6.60
2024-02-03T21:04:23.211Z,6.80
2024-02-03T21:09:59.764Z,6.20
2024-02-03T21:15:25.488Z,5.40
2024-02-03T21:20:42.707Z,9.40
2024-02-03T21:25:48.277Z,6.20
2024-02-03T21:30:56.649Z,6.30
2024-02-03T21:36:35.682Z,6.50
2024-02-03T21:42:09.620Z,5.90
2024-02-03T21:47:33.644Z,5.40
2024-02-03T21:52:47.773Z,7.10
2024-02-03T21:57:56.641Z,8.60
2024-02-03T22:03:04.220Z,9.10
2024-02-03T22:08:45.343Z,9.20
2024-02-03T22:14:20.681Z,8.70
2024-02-03T22:19:28.610Z,8.00
2024-02-03T22:24:42.869Z,6.40
2024-02-03T22:30:04.891Z,9.00
2024-02-03T22:35:18.832Z,5.50
2024-02-03T22:40:27.082Z,5.20
2024-02-03T22:45:48.069Z,5.20
2024-02-03T22:51:36.830Z,4.10
2024-02-03T22:57:47.274Z,5.50
2024-02-03T23:03:35.347Z,6.70
2024-02-03T23:09:03.284Z,3.90
2024-02-03T23:14:36.236Z,6.30
2024-02-03T23:19:56.820Z,6.20
2024-02-03T23:25:23.644Z,11.70
2024-02-03T23:31:49.318Z,6.60
2024-02-03T23:38:14.101Z,4.50
2024-02-03T23:44:15.914Z,4.80
2024-02-03T23:50:21.622Z,4.60
2024-02-03T23:57:04.885Z,3.70
